sensor_id;sensor_type;location;lat;lon;timestamp;temperature;humidity
51873;DHT22;52863;52.504;13.480;2022-07-29T00:01:40;17.00;97.60
51873;DHT22;52863;52.504;13.480;2022-07-29T00:06:39;16.90;94.10
51873;DHT22;52863;52.504;13.480;2022-07-29T00:14:04;16.80;95.30
51873;DHT22;52863;52.504;13.480;2022-07-29T00:23:59;16.70;96.70
51873;DHT22;52863;52.504;13.480;2022-07-29T00:28:58;16.60;97.30
51873;DHT22;52863;52.504;13.480;2022-07-29T00:34:16;16.40;98.20
51873;DHT22;52863;52.504;13.480;2022-07-29T00:39:35;16.50;99.10
51873;DHT22;52863;52.504;13.480;2022-07-29T00:42:03;16.60;99.70
51873;DHT22;52863;52.504;13.480;2022-07-29T00:44:36;16.40;99.70
51873;DHT22;52863;52.504;13.480;2022-07-29T00:49:34;16.40;99.90
51873;DHT22;52863;52.504;13.480;2022-07-29T00:52:02;16.40;99.90
51873;DHT22;52863;52.504;13.480;2022-07-29T00:54:32;16.40;99.90
51873;DHT22;52863;52.504;13.480;2022-07-29T00:57:02;16.40;99.90
51873;DHT22;52863;52.504;13.480;2022-07-29T01:04:31;16.30;99.90
51873;DHT22;52863;52.504;13.480;2022-07-29T01:07:01;16.40;99.90
51873;DHT22;52863;52.504;13.480;2022-07-29T01:09:29;16.40;99.90
51873;DHT22;52863;52.504;13.480;2022-07-29T01:12:17;16.30;99.90
51873;DHT22;52863;52.504;13.480;2022-07-29T01:14:47;16.30;99.90
51873;DHT22;52863;52.504;13.480;2022-07-29T01:17:20;16.30;99.90
51873;DHT22;52863;52.504;13.480;2022-07-29T01:20:01;16.30;99.90
51873;DHT22;52863;52.504;13.480;2022-07-29T01:22:42;16.30;99.90
51873;DHT22;52863;52.504;13.480;2022-07-29T01:28:56;16.20;99.90
51873;DHT22;52863;52.504;13.480;2022-07-29T01:31:31;16.20;99.90
51873;DHT22;52863;52.504;13.480;2022-07-29T01:34:13;16.20;99.90
51873;DHT22;52863;52.504;13.480;2022-07-29T01:36:48;16.20;99.90
51873;DHT22;52863;52.504;13.480;2022-07-29T01:39:19;16.20;99.90
51873;DHT22;52863;52.504;13.480;2022-07-29T01:41:50;16.20;99.90
51873;DHT22;52863;52.504;13.480;2022-07-29T01:44:27;16.20;99.90
51873;DHT22;52863;52.504;13.480;2022-07-29T01:47:02;16.20;99.90
51873;DHT22;52863;52.504;13.480;2022-07-29T01:49:36;16.20;99.90
51873;DHT22;52863;52.504;13.480;2022-07-29T01:52:11;16.20;99.90
51873;DHT22;52863;52.504;13.480;2022-07-29T01:54:48;16.10;99.90
51873;DHT22;52863;52.504;13.480;2022-07-29T01:57:21;16.10;99.90
51873;DHT22;52863;52.504;13.480;2022-07-29T01:59:54;16.10;99.90
51873;DHT22;52863;52.504;13.480;2022-07-29T02:02:24;16.20;99.90
51873;DHT22;52863;52.504;13.480;2022-07-29T02:04:54;16.20;99.90
51873;DHT22;52863;52.504;13.480;2022-07-29T02:07:25;16.00;99.90
51873;DHT22;52863;52.504;13.480;2022-07-29T02:09:57;16.10;99.90
51873;DHT22;52863;52.504;13.480;2022-07-29T02:12:27;16.00;99.90
51873;DHT22;52863;52.504;13.480;2022-07-29T02:15:00;16.00;99.90
51873;DHT22;52863;52.504;13.480;2022-07-29T02:17:35;16.00;99.90
51873;DHT22;52863;52.504;13.480;2022-07-29T02:20:08;16.00;99.90
51873;DHT22;52863;52.504;13.480;2022-07-29T02:22:38;15.90;99.90
51873;DHT22;52863;52.504;13.480;2022-07-29T02:25:08;15.50;99.90
51873;DHT22;52863;52.504;13.480;2022-07-29T02:27:41;15.90;99.90
51873;DHT22;52863;52.504;13.480;2022-07-29T02:30:12;15.90;99.90
51873;DHT22;52863;52.504;13.480;2022-07-29T02:32:41;15.90;99.90
51873;DHT22;52863;52.504;13.480;2022-07-29T02:35:14;15.80;99.90
51873;DHT22;52863;52.504;13.480;2022-07-29T02:37:44;15.90;99.90
51873;DHT22;52863;52.504;13.480;2022-07-29T02:40:34;15.90;99.90
51873;DHT22;52863;52.504;13.480;2022-07-29T02:43:05;15.80;99.90
51873;DHT22;52863;52.504;13.480;2022-07-29T02:45:36;15.80;99.90
51873;DHT22;52863;52.504;13.480;2022-07-29T02:48:08;15.50;99.90
51873;DHT22;52863;52.504;13.480;2022-07-29T02:50:40;15.80;99.90
51873;DHT22;52863;52.504;13.480;2022-07-29T02:53:14;15.70;99.90
51873;DHT22;52863;52.504;13.480;2022-07-29T02:55:45;15.70;99.90
51873;DHT22;52863;52.504;13.480;2022-07-29T02:58:19;15.80;99.90
51873;DHT22;52863;52.504;13.480;2022-07-29T03:00:51;15.80;99.90
51873;DHT22;52863;52.504;13.480;2022-07-29T03:13:15;15.70;99.90
51873;DHT22;52863;52.504;13.480;2022-07-29T03:15:47;15.70;99.90
51873;DHT22;52863;52.504;13.480;2022-07-29T03:18:17;15.80;99.90
51873;DHT22;52863;52.504;13.480;2022-07-29T03:23:18;15.80;99.90
51873;DHT22;52863;52.504;13.480;2022-07-29T03:35:43;15.70;99.90
51873;DHT22;52863;52.504;13.480;2022-07-29T03:40:44;15.70;99.90
51873;DHT22;52863;52.504;13.480;2022-07-29T03:43:15;15.70;99.90
51873;DHT22;52863;52.504;13.480;2022-07-29T03:45:47;15.70;99.90
51873;DHT22;52863;52.504;13.480;2022-07-29T03:48:21;15.70;99.90
51873;DHT22;52863;52.504;13.480;2022-07-29T03:50:51;15.70;99.90
51873;DHT22;52863;52.504;13.480;2022-07-29T03:55:52;15.80;99.90
51873;DHT22;52863;52.504;13.480;2022-07-29T03:58:23;15.80;99.90
51873;DHT22;52863;52.504;13.480;2022-07-29T04:05:59;15.70;99.90
51873;DHT22;52863;52.504;13.480;2022-07-29T04:23:19;15.90;99.90
51873;DHT22;52863;52.504;13.480;2022-07-29T04:25:48;16.00;99.90
51873;DHT22;52863;52.504;13.480;2022-07-29T04:38:19;16.50;99.90
51873;DHT22;52863;52.504;13.480;2022-07-29T04:40:47;16.70;99.90
51873;DHT22;52863;52.504;13.480;2022-07-29T04:45:49;16.40;99.90
51873;DHT22;52863;52.504;13.480;2022-07-29T04:53:23;17.50;99.90
51873;DHT22;52863;52.504;13.480;2022-07-29T04:55:51;17.90;99.90
51873;DHT22;52863;52.504;13.480;2022-07-29T04:58:20;18.00;99.90
51873;DHT22;52863;52.504;13.480;2022-07-29T05:03:20;18.20;99.90
51873;DHT22;52863;52.504;13.480;2022-07-29T05:08:17;18.10;99.90
51873;DHT22;52863;52.504;13.480;2022-07-29T05:10:47;17.90;99.90
51873;DHT22;52863;52.504;13.480;2022-07-29T05:18:12;17.60;99.90
51873;DHT22;52863;52.504;13.480;2022-07-29T05:25:39;17.30;99.90
51873;DHT22;52863;52.504;13.480;2022-07-29T05:28:12;17.60;99.90
51873;DHT22;52863;52.504;13.480;2022-07-29T05:40:58;18.20;99.90
51873;DHT22;52863;52.504;13.480;2022-07-29T05:43:28;18.20;99.90
51873;DHT22;52863;52.504;13.480;2022-07-29T05:50:54;17.60;99.90
51873;DHT22;52863;52.504;13.480;2022-07-29T05:55:55;17.50;99.90
51873;DHT22;52863;52.504;13.480;2022-07-29T06:00:53;17.70;99.90
51873;DHT22;52863;52.504;13.480;2022-07-29T06:03:26;17.80;99.90
51873;DHT22;52863;52.504;13.480;2022-07-29T06:05:57;18.20;99.90
51873;DHT22;52863;52.504;13.480;2022-07-29T06:08:31;19.10;99.90
51873;DHT22;52863;52.504;13.480;2022-07-29T06:11:00;19.50;99.90
51873;DHT22;52863;52.504;13.480;2022-07-29T06:13:29;19.80;99.90
51873;DHT22;52863;52.504;13.480;2022-07-29T06:15:59;20.20;99.20
51873;DHT22;52863;52.504;13.480;2022-07-29T06:20:56;20.40;99.90
51873;DHT22;52863;52.504;13.480;2022-07-29T06:25:52;20.60;99.90
51873;DHT22;52863;52.504;13.480;2022-07-29T06:33:19;21.20;99.90
51873;DHT22;52863;52.504;13.480;2022-07-29T06:38:21;20.80;99.90
51873;DHT22;52863;52.504;13.480;2022-07-29T06:40:59;20.90;99.90
51873;DHT22;52863;52.504;13.480;2022-07-29T06:43:30;20.80;96.80
51873;DHT22;52863;52.504;13.480;2022-07-29T06:46:01;20.80;99.90
51873;DHT22;52863;52.504;13.480;2022-07-29T06:48:32;20.70;96.80
51873;DHT22;52863;52.504;13.480;2022-07-29T06:53:32;20.40;97.30
51873;DHT22;52863;52.504;13.480;2022-07-29T06:56:01;20.40;96.80
51873;DHT22;52863;52.504;13.480;2022-07-29T06:58:30;20.40;99.90
51873;DHT22;52863;52.504;13.480;2022-07-29T07:01:00;20.10;96.70
51873;DHT22;52863;52.504;13.480;2022-07-29T07:05:59;20.00;99.90
51873;DHT22;52863;52.504;13.480;2022-07-29T07:15:52;20.50;99.90
51873;DHT22;52863;52.504;13.480;2022-07-29T07:20:49;20.40;99.90
51873;DHT22;52863;52.504;13.480;2022-07-29T07:23:19;21.50;98.30
51873;DHT22;52863;52.504;13.480;2022-07-29T07:28:15;22.30;97.90
51873;DHT22;52863;52.504;13.480;2022-07-29T07:30:45;22.20;97.10
51873;DHT22;52863;52.504;13.480;2022-07-29T07:35:42;22.80;96.70
51873;DHT22;52863;52.504;13.480;2022-07-29T07:38:11;23.20;95.50
51873;DHT22;52863;52.504;13.480;2022-07-29T07:40:42;23.60;95.00
51873;DHT22;52863;52.504;13.480;2022-07-29T07:43:13;23.80;95.00
51873;DHT22;52863;52.504;13.480;2022-07-29T07:48:10;24.80;91.70
51873;DHT22;52863;52.504;13.480;2022-07-29T07:50:38;24.80;88.10
51873;DHT22;52863;52.504;13.480;2022-07-29T07:53:06;25.10;90.00
51873;DHT22;52863;52.504;13.480;2022-07-29T07:55:41;24.50;83.80
51873;DHT22;52863;52.504;13.480;2022-07-29T07:58:29;24.90;85.70
51873;DHT22;52863;52.504;13.480;2022-07-29T08:00:57;26.10;81.20
51873;DHT22;52863;52.504;13.480;2022-07-29T08:03:25;26.30;79.00
51873;DHT22;52863;52.504;13.480;2022-07-29T08:05:54;26.20;82.70
51873;DHT22;52863;52.504;13.480;2022-07-29T08:10:52;26.40;74.60
51873;DHT22;52863;52.504;13.480;2022-07-29T08:13:21;27.10;79.50
51873;DHT22;52863;52.504;13.480;2022-07-29T08:15:50;27.10;74.10
51873;DHT22;52863;52.504;13.480;2022-07-29T08:18:25;27.60;72.50
51873;DHT22;52863;52.504;13.480;2022-07-29T08:20:53;28.00;68.90
51873;DHT22;52863;52.504;13.480;2022-07-29T08:23:22;28.10;67.20
51873;DHT22;52863;52.504;13.480;2022-07-29T08:25:52;27.90;65.30
51873;DHT22;52863;52.504;13.480;2022-07-29T08:28:20;27.50;67.10
51873;DHT22;52863;52.504;13.480;2022-07-29T08:30:51;27.50;67.40
51873;DHT22;52863;52.504;13.480;2022-07-29T08:33:19;27.60;64.90
51873;DHT22;52863;52.504;13.480;2022-07-29T08:35:47;27.40;67.30
51873;DHT22;52863;52.504;13.480;2022-07-29T08:38:16;27.20;67.10
51873;DHT22;52863;52.504;13.480;2022-07-29T08:40:44;27.50;65.00
51873;DHT22;52863;52.504;13.480;2022-07-29T08:43:14;27.70;65.20
51873;DHT22;52863;52.504;13.480;2022-07-29T08:45:43;27.00;66.10
51873;DHT22;52863;52.504;13.480;2022-07-29T08:48:14;26.40;66.60
51873;DHT22;52863;52.504;13.480;2022-07-29T08:50:44;26.00;73.50
51873;DHT22;52863;52.504;13.480;2022-07-29T08:53:14;26.30;67.50
51873;DHT22;52863;52.504;13.480;2022-07-29T08:55:44;26.40;71.80
51873;DHT22;52863;52.504;13.480;2022-07-29T08:58:15;26.60;72.30
51873;DHT22;52863;52.504;13.480;2022-07-29T09:00:51;25.80;72.70
51873;DHT22;52863;52.504;13.480;2022-07-29T09:03:24;25.30;74.80
51873;DHT22;52863;52.504;13.480;2022-07-29T09:05:53;25.50;68.10
51873;DHT22;52863;52.504;13.480;2022-07-29T09:08:21;24.80;74.70
51873;DHT22;52863;52.504;13.480;2022-07-29T09:13:21;24.70;74.30
51873;DHT22;52863;52.504;13.480;2022-07-29T09:15:49;25.30;73.90
51873;DHT22;52863;52.504;13.480;2022-07-29T09:18:36;25.70;74.20
51873;DHT22;52863;52.504;13.480;2022-07-29T09:21:05;26.10;72.40
51873;DHT22;52863;52.504;13.480;2022-07-29T09:24:05;26.20;66.20
51873;DHT22;52863;52.504;13.480;2022-07-29T09:26:35;26.50;68.90
51873;DHT22;52863;52.504;13.480;2022-07-29T09:29:12;26.50;69.60
51873;DHT22;52863;52.504;13.480;2022-07-29T09:31:43;26.70;63.60
51873;DHT22;52863;52.504;13.480;2022-07-29T09:34:13;26.20;70.20
51873;DHT22;52863;52.504;13.480;2022-07-29T09:36:43;26.00;69.70
51873;DHT22;52863;52.504;13.480;2022-07-29T09:39:13;26.10;70.30
51873;DHT22;52863;52.504;13.480;2022-07-29T09:41:48;27.60;72.00
51873;DHT22;52863;52.504;13.480;2022-07-29T09:44:18;26.00;71.50
51873;DHT22;52863;52.504;13.480;2022-07-29T09:46:54;25.70;69.50
51873;DHT22;52863;52.504;13.480;2022-07-29T09:49:24;25.80;70.10
51873;DHT22;52863;52.504;13.480;2022-07-29T09:52:05;25.20;70.40
51873;DHT22;52863;52.504;13.480;2022-07-29T09:54:34;25.60;70.60
51873;DHT22;52863;52.504;13.480;2022-07-29T09:57:08;25.40;64.50
51873;DHT22;52863;52.504;13.480;2022-07-29T09:59:56;25.70;70.50
51873;DHT22;52863;52.504;13.480;2022-07-29T10:02:28;25.70;68.10
51873;DHT22;52863;52.504;13.480;2022-07-29T10:04:59;27.30;70.40
51873;DHT22;52863;52.504;13.480;2022-07-29T10:07:43;26.40;59.30
51873;DHT22;52863;52.504;13.480;2022-07-29T10:10:22;27.20;65.30
51873;DHT22;52863;52.504;13.480;2022-07-29T10:12:54;27.40;62.80
51873;DHT22;52863;52.504;13.480;2022-07-29T10:15:25;27.70;57.50
51873;DHT22;52863;52.504;13.480;2022-07-29T10:17:55;28.10;56.60
51873;DHT22;52863;52.504;13.480;2022-07-29T10:20:25;28.90;54.40
51873;DHT22;52863;52.504;13.480;2022-07-29T10:22:54;28.80;54.80
51873;DHT22;52863;52.504;13.480;2022-07-29T10:25:24;29.20;53.50
51873;DHT22;52863;52.504;13.480;2022-07-29T10:27:53;28.90;57.60
51873;DHT22;52863;52.504;13.480;2022-07-29T10:30:24;29.20;53.70
51873;DHT22;52863;52.504;13.480;2022-07-29T10:33:27;29.00;52.30
51873;DHT22;52863;52.504;13.480;2022-07-29T10:36:07;28.50;53.40
51873;DHT22;52863;52.504;13.480;2022-07-29T10:38:53;28.20;54.00
51873;DHT22;52863;52.504;13.480;2022-07-29T10:41:50;27.80;54.30
51873;DHT22;52863;52.504;13.480;2022-07-29T10:44:23;28.20;54.60
51873;DHT22;52863;52.504;13.480;2022-07-29T10:46:53;28.30;54.30
51873;DHT22;52863;52.504;13.480;2022-07-29T10:49:22;28.10;53.50
51873;DHT22;52863;52.504;13.480;2022-07-29T10:51:58;28.00;54.70
51873;DHT22;52863;52.504;13.480;2022-07-29T10:54:43;28.20;54.70
51873;DHT22;52863;52.504;13.480;2022-07-29T10:57:31;28.70;54.70
51873;DHT22;52863;52.504;13.480;2022-07-29T11:00:28;29.10;54.00
51873;DHT22;52863;52.504;13.480;2022-07-29T11:02:58;29.40;51.70
51873;DHT22;52863;52.504;13.480;2022-07-29T11:05:52;29.60;51.20
51873;DHT22;52863;52.504;13.480;2022-07-29T11:08:25;29.20;52.80
51873;DHT22;52863;52.504;13.480;2022-07-29T11:14:03;28.60;53.30
51873;DHT22;52863;52.504;13.480;2022-07-29T11:16:58;28.10;52.60
51873;DHT22;52863;52.504;13.480;2022-07-29T11:19:28;27.60;54.00
51873;DHT22;52863;52.504;13.480;2022-07-29T11:21:57;27.50;54.90
51873;DHT22;52863;52.504;13.480;2022-07-29T11:24:28;27.50;54.90
51873;DHT22;52863;52.504;13.480;2022-07-29T11:27:14;27.30;55.90
51873;DHT22;52863;52.504;13.480;2022-07-29T11:29:55;27.10;55.60
51873;DHT22;52863;52.504;13.480;2022-07-29T11:32:35;27.00;56.10
51873;DHT22;52863;52.504;13.480;2022-07-29T11:35:16;27.20;56.60
51873;DHT22;52863;52.504;13.480;2022-07-29T11:38:25;28.10;56.50
51873;DHT22;52863;52.504;13.480;2022-07-29T11:41:22;29.80;53.90
51873;DHT22;52863;52.504;13.480;2022-07-29T11:43:52;30.60;51.60
51873;DHT22;52863;52.504;13.480;2022-07-29T11:46:43;30.50;51.80
51873;DHT22;52863;52.504;13.480;2022-07-29T11:49:13;30.50;52.30
51873;DHT22;52863;52.504;13.480;2022-07-29T11:51:52;31.00;52.10
51873;DHT22;52863;52.504;13.480;2022-07-29T11:54:25;31.70;51.80
51873;DHT22;52863;52.504;13.480;2022-07-29T11:56:54;32.20;50.10
51873;DHT22;52863;52.504;13.480;2022-07-29T11:59:22;31.60;50.20
51873;DHT22;52863;52.504;13.480;2022-07-29T12:02:01;31.10;51.60
51873;DHT22;52863;52.504;13.480;2022-07-29T12:04:49;30.60;52.50
51873;DHT22;52863;52.504;13.480;2022-07-29T12:07:25;31.40;56.10
51873;DHT22;52863;52.504;13.480;2022-07-29T12:10:01;31.00;52.50
51873;DHT22;52863;52.504;13.480;2022-07-29T12:12:32;30.60;52.50
51873;DHT22;52863;52.504;13.480;2022-07-29T12:15:13;30.60;54.10
51873;DHT22;52863;52.504;13.480;2022-07-29T12:17:42;30.00;54.50
51873;DHT22;52863;52.504;13.480;2022-07-29T12:20:13;30.20;55.30
51873;DHT22;52863;52.504;13.480;2022-07-29T12:22:52;30.90;54.10
51873;DHT22;52863;52.504;13.480;2022-07-29T12:25:22;31.00;54.60
51873;DHT22;52863;52.504;13.480;2022-07-29T12:28:00;31.00;54.00
51873;DHT22;52863;52.504;13.480;2022-07-29T12:30:43;30.10;55.10
51873;DHT22;52863;52.504;13.480;2022-07-29T12:33:19;29.30;56.40
51873;DHT22;52863;52.504;13.480;2022-07-29T12:35:50;28.70;57.10
51873;DHT22;52863;52.504;13.480;2022-07-29T12:38:34;28.50;57.10
51873;DHT22;52863;52.504;13.480;2022-07-29T12:41:03;28.50;55.90
51873;DHT22;52863;52.504;13.480;2022-07-29T12:43:31;28.20;63.20
51873;DHT22;52863;52.504;13.480;2022-07-29T12:46:12;28.30;57.00
51873;DHT22;52863;52.504;13.480;2022-07-29T12:48:42;27.90;63.30
51873;DHT22;52863;52.504;13.480;2022-07-29T12:51:11;27.90;64.30
51873;DHT22;52863;52.504;13.480;2022-07-29T12:54:02;28.10;65.00
51873;DHT22;52863;52.504;13.480;2022-07-29T12:56:31;28.10;59.40
51873;DHT22;52863;52.504;13.480;2022-07-29T12:59:14;28.20;63.00
51873;DHT22;52863;52.504;13.480;2022-07-29T13:01:43;27.70;63.20
51873;DHT22;52863;52.504;13.480;2022-07-29T13:04:11;27.50;61.90
51873;DHT22;52863;52.504;13.480;2022-07-29T13:06:58;27.60;62.50
51873;DHT22;52863;52.504;13.480;2022-07-29T13:09:49;28.20;62.40
51873;DHT22;52863;52.504;13.480;2022-07-29T13:12:17;27.80;56.90
51873;DHT22;52863;52.504;13.480;2022-07-29T13:14:48;28.40;61.80
51873;DHT22;52863;52.504;13.480;2022-07-29T13:17:19;28.10;57.50
51873;DHT22;52863;52.504;13.480;2022-07-29T13:19:51;28.10;58.10
51873;DHT22;52863;52.504;13.480;2022-07-29T13:22:21;28.30;56.80
51873;DHT22;52863;52.504;13.480;2022-07-29T13:24:52;28.10;56.40
51873;DHT22;52863;52.504;13.480;2022-07-29T13:27:22;28.60;62.60
51873;DHT22;52863;52.504;13.480;2022-07-29T13:29:51;28.20;63.80
51873;DHT22;52863;52.504;13.480;2022-07-29T13:32:20;27.80;64.50
51873;DHT22;52863;52.504;13.480;2022-07-29T13:34:55;27.50;65.70
51873;DHT22;52863;52.504;13.480;2022-07-29T13:37:23;27.90;66.20
51873;DHT22;52863;52.504;13.480;2022-07-29T13:39:54;27.60;63.80
51873;DHT22;52863;52.504;13.480;2022-07-29T13:44:51;27.70;65.40
51873;DHT22;52863;52.504;13.480;2022-07-29T13:47:20;27.70;58.70
51873;DHT22;52863;52.504;13.480;2022-07-29T13:49:58;27.60;64.10
51873;DHT22;52863;52.504;13.480;2022-07-29T13:52:26;27.80;59.00
51873;DHT22;52863;52.504;13.480;2022-07-29T13:54:56;27.80;58.90
51873;DHT22;52863;52.504;13.480;2022-07-29T13:57:25;27.60;64.10
51873;DHT22;52863;52.504;13.480;2022-07-29T13:59:54;27.80;64.20
51873;DHT22;52863;52.504;13.480;2022-07-29T14:02:22;27.90;64.20
51873;DHT22;52863;52.504;13.480;2022-07-29T14:04:52;27.80;58.90
51873;DHT22;52863;52.504;13.480;2022-07-29T14:07:22;27.90;59.60
51873;DHT22;52863;52.504;13.480;2022-07-29T14:09:56;27.60;58.40
51873;DHT22;52863;52.504;13.480;2022-07-29T14:12:27;27.80;65.70
51873;DHT22;52863;52.504;13.480;2022-07-29T14:19:55;27.40;64.90
51873;DHT22;52863;52.504;13.480;2022-07-29T14:27:23;26.90;65.70
51873;DHT22;52863;52.504;13.480;2022-07-29T14:30:05;27.30;60.30
51873;DHT22;52863;52.504;13.480;2022-07-29T14:32:33;27.60;66.50
51873;DHT22;52863;52.504;13.480;2022-07-29T14:35:01;27.70;65.80
51873;DHT22;52863;52.504;13.480;2022-07-29T14:37:29;27.10;64.90
51873;DHT22;52863;52.504;13.480;2022-07-29T14:40:07;27.30;65.30
51873;DHT22;52863;52.504;13.480;2022-07-29T14:42:37;27.50;65.30
51873;DHT22;52863;52.504;13.480;2022-07-29T14:45:07;27.30;64.50
51873;DHT22;52863;52.504;13.480;2022-07-29T14:47:36;27.60;65.40
51873;DHT22;52863;52.504;13.480;2022-07-29T14:50:06;27.40;59.40
51873;DHT22;52863;52.504;13.480;2022-07-29T14:52:35;27.40;64.00
51873;DHT22;52863;52.504;13.480;2022-07-29T14:55:04;27.50;63.90
51873;DHT22;52863;52.504;13.480;2022-07-29T14:57:47;27.30;63.50
51873;DHT22;52863;52.504;13.480;2022-07-29T15:00:17;27.30;63.80
51873;DHT22;52863;52.504;13.480;2022-07-29T15:02:45;27.50;63.20
51873;DHT22;52863;52.504;13.480;2022-07-29T15:05:30;27.30;62.50
51873;DHT22;52863;52.504;13.480;2022-07-29T15:07:58;27.50;62.60
51873;DHT22;52863;52.504;13.480;2022-07-29T15:10:27;27.50;62.70
51873;DHT22;52863;52.504;13.480;2022-07-29T15:12:57;24.10;60.20
51873;DHT22;52863;52.504;13.480;2022-07-29T15:15:25;27.50;61.70
51873;DHT22;52863;52.504;13.480;2022-07-29T15:17:53;27.90;61.70
51873;DHT22;52863;52.504;13.480;2022-07-29T15:20:22;27.60;62.10
51873;DHT22;52863;52.504;13.480;2022-07-29T15:22:51;28.10;62.60
51873;DHT22;52863;52.504;13.480;2022-07-29T15:27:48;27.80;56.50
51873;DHT22;52863;52.504;13.480;2022-07-29T15:30:21;27.80;63.10
51873;DHT22;52863;52.504;13.480;2022-07-29T15:32:58;27.70;62.30
51873;DHT22;52863;52.504;13.480;2022-07-29T15:35:26;27.50;62.10
51873;DHT22;52863;52.504;13.480;2022-07-29T15:40:23;27.20;63.30
51873;DHT22;52863;52.504;13.480;2022-07-29T15:42:51;27.50;63.10
51873;DHT22;52863;52.504;13.480;2022-07-29T15:45:21;27.60;63.20
51873;DHT22;52863;52.504;13.480;2022-07-29T15:47:49;27.40;58.00
51873;DHT22;52863;52.504;13.480;2022-07-29T15:50:18;27.50;64.60
51873;DHT22;52863;52.504;13.480;2022-07-29T15:52:47;27.70;63.10
51873;DHT22;52863;52.504;13.480;2022-07-29T15:55:15;27.30;62.10
51873;DHT22;52863;52.504;13.480;2022-07-29T15:57:43;27.20;64.20
51873;DHT22;52863;52.504;13.480;2022-07-29T16:00:12;27.40;57.40
51873;DHT22;52863;52.504;13.480;2022-07-29T16:02:42;27.60;62.40
51873;DHT22;52863;52.504;13.480;2022-07-29T16:05:10;27.70;62.60
51873;DHT22;52863;52.504;13.480;2022-07-29T16:07:38;24.90;60.70
51873;DHT22;52863;52.504;13.480;2022-07-29T16:10:07;27.20;61.80
51873;DHT22;52863;52.504;13.480;2022-07-29T16:12:35;27.10;59.10
51873;DHT22;52863;52.504;13.480;2022-07-29T16:15:04;27.10;61.60
51873;DHT22;52863;52.504;13.480;2022-07-29T16:17:36;27.00;62.00
51873;DHT22;52863;52.504;13.480;2022-07-29T16:20:07;27.20;62.30
51873;DHT22;52863;52.504;13.480;2022-07-29T16:22:39;26.90;62.10
51873;DHT22;52863;52.504;13.480;2022-07-29T16:25:08;26.80;62.50
51873;DHT22;52863;52.504;13.480;2022-07-29T16:27:39;26.80;62.70
51873;DHT22;52863;52.504;13.480;2022-07-29T16:30:17;26.90;62.70
51873;DHT22;52863;52.504;13.480;2022-07-29T16:32:46;27.00;62.80
51873;DHT22;52863;52.504;13.480;2022-07-29T16:35:15;27.00;57.60
51873;DHT22;52863;52.504;13.480;2022-07-29T16:37:43;26.90;63.90
51873;DHT22;52863;52.504;13.480;2022-07-29T16:40:12;26.80;62.20
51873;DHT22;52863;52.504;13.480;2022-07-29T16:45:13;27.20;61.90
51873;DHT22;52863;52.504;13.480;2022-07-29T16:47:41;27.30;62.30
51873;DHT22;52863;52.504;13.480;2022-07-29T16:52:39;27.00;62.10
51873;DHT22;52863;52.504;13.480;2022-07-29T16:55:07;27.00;61.90
51873;DHT22;52863;52.504;13.480;2022-07-29T16:57:36;27.50;62.30
51873;DHT22;52863;52.504;13.480;2022-07-29T17:00:05;27.10;56.40
51873;DHT22;52863;52.504;13.480;2022-07-29T17:02:34;26.60;61.20
51873;DHT22;52863;52.504;13.480;2022-07-29T17:05:04;27.20;61.10
51873;DHT22;52863;52.504;13.480;2022-07-29T17:10:04;26.60;62.00
51873;DHT22;52863;52.504;13.480;2022-07-29T17:12:34;26.60;62.00
51873;DHT22;52863;52.504;13.480;2022-07-29T17:15:05;26.60;62.00
51873;DHT22;52863;52.504;13.480;2022-07-29T17:17:34;26.80;61.20
51873;DHT22;52863;52.504;13.480;2022-07-29T17:20:22;26.90;61.40
51873;DHT22;52863;52.504;13.480;2022-07-29T17:25:23;26.70;55.40
51873;DHT22;52863;52.504;13.480;2022-07-29T17:27:52;26.70;56.10
51873;DHT22;52863;52.504;13.480;2022-07-29T17:32:55;26.50;61.50
51873;DHT22;52863;52.504;13.480;2022-07-29T17:38:11;26.50;61.70
51873;DHT22;52863;52.504;13.480;2022-07-29T17:40:41;26.50;61.30
51873;DHT22;52863;52.504;13.480;2022-07-29T17:43:09;26.70;61.80
51873;DHT22;52863;52.504;13.480;2022-07-29T17:48:18;26.10;61.30
51873;DHT22;52863;52.504;13.480;2022-07-29T17:50:47;26.30;55.50
51873;DHT22;52863;52.504;13.480;2022-07-29T17:53:15;26.40;62.10
51873;DHT22;52863;52.504;13.480;2022-07-29T17:55:45;26.20;55.60
51873;DHT22;52863;52.504;13.480;2022-07-29T17:58:15;26.60;62.30
51873;DHT22;52863;52.504;13.480;2022-07-29T18:00:44;26.40;63.00
51873;DHT22;52863;52.504;13.480;2022-07-29T18:03:13;25.90;62.10
51873;DHT22;52863;52.504;13.480;2022-07-29T18:05:42;25.80;62.20
51873;DHT22;52863;52.504;13.480;2022-07-29T18:08:10;25.80;62.30
51873;DHT22;52863;52.504;13.480;2022-07-29T18:10:38;26.00;62.20
51873;DHT22;52863;52.504;13.480;2022-07-29T18:13:09;25.80;62.50
51873;DHT22;52863;52.504;13.480;2022-07-29T18:15:38;26.20;62.60
51873;DHT22;52863;52.504;13.480;2022-07-29T18:18:06;26.00;62.70
51873;DHT22;52863;52.504;13.480;2022-07-29T18:20:35;26.00;63.20
51873;DHT22;52863;52.504;13.480;2022-07-29T18:23:03;26.00;58.70
51873;DHT22;52863;52.504;13.480;2022-07-29T18:28:00;25.50;63.30
51873;DHT22;52863;52.504;13.480;2022-07-29T18:30:30;25.40;63.50
51873;DHT22;52863;52.504;13.480;2022-07-29T18:33:00;25.80;63.60
51873;DHT22;52863;52.504;13.480;2022-07-29T18:35:49;25.30;63.20
51873;DHT22;52863;52.504;13.480;2022-07-29T18:38:18;25.20;63.70
51873;DHT22;52863;52.504;13.480;2022-07-29T18:43:16;25.60;64.80
51873;DHT22;52863;52.504;13.480;2022-07-29T18:45:45;25.50;64.50
51873;DHT22;52863;52.504;13.480;2022-07-29T18:48:16;25.60;64.90
51873;DHT22;52863;52.504;13.480;2022-07-29T18:50:45;25.10;64.90
51873;DHT22;52863;52.504;13.480;2022-07-29T18:55:41;25.00;65.20
51873;DHT22;52863;52.504;13.480;2022-07-29T18:58:10;24.80;59.60
51873;DHT22;52863;52.504;13.480;2022-07-29T19:00:38;25.00;65.60
51873;DHT22;52863;52.504;13.480;2022-07-29T19:03:08;24.50;65.20
51873;DHT22;52863;52.504;13.480;2022-07-29T19:05:37;24.80;65.50
51873;DHT22;52863;52.504;13.480;2022-07-29T19:10:34;24.50;65.90
51873;DHT22;52863;52.504;13.480;2022-07-29T19:13:02;24.20;65.60
51873;DHT22;52863;52.504;13.480;2022-07-29T19:15:32;24.40;65.90
51873;DHT22;52863;52.504;13.480;2022-07-29T19:18:00;24.30;66.20
51873;DHT22;52863;52.504;13.480;2022-07-29T19:20:31;24.70;60.90
51873;DHT22;52863;52.504;13.480;2022-07-29T19:22:59;24.60;66.70
51873;DHT22;52863;52.504;13.480;2022-07-29T19:25:28;24.50;67.00
51873;DHT22;52863;52.504;13.480;2022-07-29T19:30:24;24.60;67.40